Mc Alester Regional Airport
KMLC : rendu visible

Aérodrome :











RETROUVEZ-NOUS SUR...

 
LOGIN :

S'inscrire | Disclaimer

   EN    FR    IT 

 









Légende :    VFR   VFR Marginal   IFR   IFR Intensif   IFR Très Intensif
Visi : 
Plafond : 
>= 8 km
>= 3000ft
5 à 8 km
1000 à 3000 ft
1500m à 5 km
500 à 1000 ft
800 à 1500m
200 à 500 ft
< 800m
< 200 ft
Symboles :   Orages  Brouillard  Fortes neiges  Fortes précipitations  Vent > 20 kt






- Altitude de l'aérodrome : 770 ft


KMLC - Mc Alester Regional

DERNIER METAR :
  • 100853Z AUTO 02009KT 10SM FEW120 01/M08 A3020 RMK AO2 SLP227 T00111078 53006

METARs EXPIRÉS :
  • 100753Z AUTO 36017G21KT 10SM SCT110 02/M08 A3018 RMK AO2 SLP218 T00171078
  • 100653Z AUTO 01012KT 10SM OVC110 02/M07 A3018 RMK AO2 SLP220 T00221072

TAF KMLC
Valide du 10 à 06h jusqu'au 11 à 06h UTC


100532Z 1006/1106 36012KT P6SM BKN150
FM101100 01005KT P6SM BKN250
FM101800 01005KT P6SM SKC
FM110000 00000KT P6SM SKC



MET'MAP, la Météo Aéronautique d'un coup d'oeil ! - Copyright ORBIFLY Décembre 2007 - Disclaimer

ORBIFLY MET'MAP TEAM :

Programmation & Développement : Alexandra Zaïnal
Sur une idée originale de : Baudouin d'Aumeries
Assistance à la programmation : Marc-Olivier Méhu
Soutien technique & logistique : Manuel Goepfert

Contact : metmap@orbifly.com




SOURCES & CREDITS :

   NOAA       Earth
Advisory